sensor_id;sensor_type;location;lat;lon;timestamp;temperature;humidity
13446;DHT22;6795;51.232;3.764;2022-10-15T00:01:16;13.80;99.90
13446;DHT22;6795;51.232;3.764;2022-10-15T00:06:52;13.90;99.90
13446;DHT22;6795;51.232;3.764;2022-10-15T00:08:23;14.00;99.90
13446;DHT22;6795;51.232;3.764;2022-10-15T00:11:48;14.00;99.90
13446;DHT22;6795;51.232;3.764;2022-10-15T00:15:02;14.10;99.90
13446;DHT22;6795;51.232;3.764;2022-10-15T00:18:18;14.10;99.90
13446;DHT22;6795;51.232;3.764;2022-10-15T00:21:43;14.10;99.90
13446;DHT22;6795;51.232;3.764;2022-10-15T00:24:42;14.10;99.90
13446;DHT22;6795;51.232;3.764;2022-10-15T00:28:01;14.10;99.90
13446;DHT22;6795;51.232;3.764;2022-10-15T00:31:28;14.20;99.90
13446;DHT22;6795;51.232;3.764;2022-10-15T00:34:51;14.30;99.90
13446;DHT22;6795;51.232;3.764;2022-10-15T00:38:54;14.30;99.90
13446;DHT22;6795;51.232;3.764;2022-10-15T00:42:41;14.30;99.90
13446;DHT22;6795;51.232;3.764;2022-10-15T00:46:24;14.40;99.90
13446;DHT22;6795;51.232;3.764;2022-10-15T00:53:23;14.40;99.90
13446;DHT22;6795;51.232;3.764;2022-10-15T00:56:48;14.40;99.90
13446;DHT22;6795;51.232;3.764;2022-10-15T01:00:10;14.50;99.90
13446;DHT22;6795;51.232;3.764;2022-10-15T01:03:54;14.40;99.90
13446;DHT22;6795;51.232;3.764;2022-10-15T01:07:33;14.30;99.90
13446;DHT22;6795;51.232;3.764;2022-10-15T01:11:09;14.10;99.90
13446;DHT22;6795;51.232;3.764;2022-10-15T01:15:32;14.00;99.90
13446;DHT22;6795;51.232;3.764;2022-10-15T01:18:42;13.90;99.90
13446;DHT22;6795;51.232;3.764;2022-10-15T01:28:38;13.70;99.90
13446;DHT22;6795;51.232;3.764;2022-10-15T01:35:20;13.50;99.90
13446;DHT22;6795;51.232;3.764;2022-10-15T01:38:38;13.50;99.90
13446;DHT22;6795;51.232;3.764;2022-10-15T01:42:10;13.50;99.90
13446;DHT22;6795;51.232;3.764;2022-10-15T01:45:52;13.40;99.90
13446;DHT22;6795;51.232;3.764;2022-10-15T01:54:02;13.10;99.90
13446;DHT22;6795;51.232;3.764;2022-10-15T01:59:09;12.90;99.90
13446;DHT22;6795;51.232;3.764;2022-10-15T02:00:50;12.70;99.90
13446;DHT22;6795;51.232;3.764;2022-10-15T02:03:59;12.60;99.90
13446;DHT22;6795;51.232;3.764;2022-10-15T02:07:14;12.50;99.90
13446;DHT22;6795;51.232;3.764;2022-10-15T02:11:24;12.40;99.90
13446;DHT22;6795;51.232;3.764;2022-10-15T02:14:52;12.40;99.90
13446;DHT22;6795;51.232;3.764;2022-10-15T02:18:15;12.10;99.90
13446;DHT22;6795;51.232;3.764;2022-10-15T02:22:00;12.10;99.90
13446;DHT22;6795;51.232;3.764;2022-10-15T02:25:29;12.00;99.90
13446;DHT22;6795;51.232;3.764;2022-10-15T02:29:10;12.20;99.90
13446;DHT22;6795;51.232;3.764;2022-10-15T02:32:14;12.30;99.90
13446;DHT22;6795;51.232;3.764;2022-10-15T02:35:52;12.50;99.90
13446;DHT22;6795;51.232;3.764;2022-10-15T02:39:08;12.60;99.90
13446;DHT22;6795;51.232;3.764;2022-10-15T02:42:10;12.70;99.90
13446;DHT22;6795;51.232;3.764;2022-10-15T02:45:26;12.80;99.90
13446;DHT22;6795;51.232;3.764;2022-10-15T02:52:14;12.60;99.90
13446;DHT22;6795;51.232;3.764;2022-10-15T02:55:09;12.60;99.90
13446;DHT22;6795;51.232;3.764;2022-10-15T02:58:49;12.70;99.90
13446;DHT22;6795;51.232;3.764;2022-10-15T03:01:54;12.90;99.90
13446;DHT22;6795;51.232;3.764;2022-10-15T03:05:05;13.00;99.90
13446;DHT22;6795;51.232;3.764;2022-10-15T03:08:08;13.00;99.90
13446;DHT22;6795;51.232;3.764;2022-10-15T03:11:16;13.10;99.90
13446;DHT22;6795;51.232;3.764;2022-10-15T03:15:17;13.00;99.90
13446;DHT22;6795;51.232;3.764;2022-10-15T03:18:52;12.90;99.90
13446;DHT22;6795;51.232;3.764;2022-10-15T03:21:35;12.80;99.90
13446;DHT22;6795;51.232;3.764;2022-10-15T03:24:55;12.80;99.90
13446;DHT22;6795;51.232;3.764;2022-10-15T03:28:23;12.60;99.90
13446;DHT22;6795;51.232;3.764;2022-10-15T03:31:24;12.60;99.90
13446;DHT22;6795;51.232;3.764;2022-10-15T03:35:49;12.60;99.90
13446;DHT22;6795;51.232;3.764;2022-10-15T03:38:34;12.50;99.90
13446;DHT22;6795;51.232;3.764;2022-10-15T03:42:17;12.40;99.90
13446;DHT22;6795;51.232;3.764;2022-10-15T03:46:12;12.30;99.90
13446;DHT22;6795;51.232;3.764;2022-10-15T03:49:18;12.30;99.90
13446;DHT22;6795;51.232;3.764;2022-10-15T03:53:04;12.30;99.90
13446;DHT22;6795;51.232;3.764;2022-10-15T03:56:33;12.50;99.90
13446;DHT22;6795;51.232;3.764;2022-10-15T04:00:06;12.50;99.90
13446;DHT22;6795;51.232;3.764;2022-10-15T04:03:43;12.50;99.90
13446;DHT22;6795;51.232;3.764;2022-10-15T04:06:42;12.50;99.90
13446;DHT22;6795;51.232;3.764;2022-10-15T04:10:25;12.50;99.90
13446;DHT22;6795;51.232;3.764;2022-10-15T04:13:59;12.50;99.90
13446;DHT22;6795;51.232;3.764;2022-10-15T04:17:39;12.60;99.90
13446;DHT22;6795;51.232;3.764;2022-10-15T04:20:10;12.80;99.90
13446;DHT22;6795;51.232;3.764;2022-10-15T04:24:05;12.90;99.90
13446;DHT22;6795;51.232;3.764;2022-10-15T04:27:57;13.00;99.90
13446;DHT22;6795;51.232;3.764;2022-10-15T04:31:25;13.10;99.90
13446;DHT22;6795;51.232;3.764;2022-10-15T04:34:22;13.20;99.90
13446;DHT22;6795;51.232;3.764;2022-10-15T04:37:24;13.40;99.90
13446;DHT22;6795;51.232;3.764;2022-10-15T04:40:56;13.50;99.90
13446;DHT22;6795;51.232;3.764;2022-10-15T04:56:06;13.60;99.90
13446;DHT22;6795;51.232;3.764;2022-10-15T04:59:44;13.60;99.90
13446;DHT22;6795;51.232;3.764;2022-10-15T05:03:12;13.60;99.90
13446;DHT22;6795;51.232;3.764;2022-10-15T05:06:31;13.70;99.90
13446;DHT22;6795;51.232;3.764;2022-10-15T05:09:48;13.70;99.90
13446;DHT22;6795;51.232;3.764;2022-10-15T05:13:08;13.70;99.90
13446;DHT22;6795;51.232;3.764;2022-10-15T05:16:25;13.70;99.90
13446;DHT22;6795;51.232;3.764;2022-10-15T05:20:05;13.70;99.90
13446;DHT22;6795;51.232;3.764;2022-10-15T05:24:47;13.70;99.90
13446;DHT22;6795;51.232;3.764;2022-10-15T05:26:44;13.70;99.90
13446;DHT22;6795;51.232;3.764;2022-10-15T05:30:29;13.70;99.90
13446;DHT22;6795;51.232;3.764;2022-10-15T05:36:48;13.50;99.90
13446;DHT22;6795;51.232;3.764;2022-10-15T05:40:05;13.50;99.90
13446;DHT22;6795;51.232;3.764;2022-10-15T05:43:28;13.40;99.90
13446;DHT22;6795;51.232;3.764;2022-10-15T05:46:38;13.30;99.90
13446;DHT22;6795;51.232;3.764;2022-10-15T05:49:41;13.20;99.90
13446;DHT22;6795;51.232;3.764;2022-10-15T05:52:56;13.20;99.90
13446;DHT22;6795;51.232;3.764;2022-10-15T05:56:10;13.20;99.90
13446;DHT22;6795;51.232;3.764;2022-10-15T05:59:37;13.20;99.90
13446;DHT22;6795;51.232;3.764;2022-10-15T06:02:38;13.20;99.90
13446;DHT22;6795;51.232;3.764;2022-10-15T06:06:02;13.20;99.90
13446;DHT22;6795;51.232;3.764;2022-10-15T06:09:18;13.30;99.90
13446;DHT22;6795;51.232;3.764;2022-10-15T06:12:28;13.40;99.90
13446;DHT22;6795;51.232;3.764;2022-10-15T06:15:47;13.40;99.90
13446;DHT22;6795;51.232;3.764;2022-10-15T06:19:18;13.50;99.90
13446;DHT22;6795;51.232;3.764;2022-10-15T06:22:28;13.60;99.90
13446;DHT22;6795;51.232;3.764;2022-10-15T06:26:08;13.70;99.90
13446;DHT22;6795;51.232;3.764;2022-10-15T06:30:00;13.70;99.90
13446;DHT22;6795;51.232;3.764;2022-10-15T06:33:16;13.80;99.90
13446;DHT22;6795;51.232;3.764;2022-10-15T06:41:05;13.80;99.90
13446;DHT22;6795;51.232;3.764;2022-10-15T06:44:30;13.90;99.90
13446;DHT22;6795;51.232;3.764;2022-10-15T06:48:06;14.10;99.90
13446;DHT22;6795;51.232;3.764;2022-10-15T06:51:46;14.10;99.90
13446;DHT22;6795;51.232;3.764;2022-10-15T06:55:03;14.20;99.90
13446;DHT22;6795;51.232;3.764;2022-10-15T06:59:21;14.30;99.90
13446;DHT22;6795;51.232;3.764;2022-10-15T07:02:17;14.40;99.90
13446;DHT22;6795;51.232;3.764;2022-10-15T07:05:36;14.40;99.90
13446;DHT22;6795;51.232;3.764;2022-10-15T07:08:58;14.50;99.90
13446;DHT22;6795;51.232;3.764;2022-10-15T07:12:41;14.60;99.90
13446;DHT22;6795;51.232;3.764;2022-10-15T07:16:45;14.70;99.90
13446;DHT22;6795;51.232;3.764;2022-10-15T07:19:37;14.70;99.90
13446;DHT22;6795;51.232;3.764;2022-10-15T07:23:09;14.80;99.90
13446;DHT22;6795;51.232;3.764;2022-10-15T07:26:48;14.80;99.90
13446;DHT22;6795;51.232;3.764;2022-10-15T07:30:08;14.80;99.90
13446;DHT22;6795;51.232;3.764;2022-10-15T07:33:31;14.90;99.90
13446;DHT22;6795;51.232;3.764;2022-10-15T07:36:34;14.90;99.90
13446;DHT22;6795;51.232;3.764;2022-10-15T07:39:41;14.90;99.90
13446;DHT22;6795;51.232;3.764;2022-10-15T07:46:46;14.80;99.90
13446;DHT22;6795;51.232;3.764;2022-10-15T07:54:16;14.80;99.90
13446;DHT22;6795;51.232;3.764;2022-10-15T07:57:40;14.80;99.90
13446;DHT22;6795;51.232;3.764;2022-10-15T08:00:49;14.90;99.90
13446;DHT22;6795;51.232;3.764;2022-10-15T08:03:53;15.00;99.90
13446;DHT22;6795;51.232;3.764;2022-10-15T08:07:30;15.00;99.90
13446;DHT22;6795;51.232;3.764;2022-10-15T08:14:29;15.10;99.90
13446;DHT22;6795;51.232;3.764;2022-10-15T08:17:40;15.20;99.90
13446;DHT22;6795;51.232;3.764;2022-10-15T08:20:42;15.20;99.90
13446;DHT22;6795;51.232;3.764;2022-10-15T08:23:54;15.30;99.90
13446;DHT22;6795;51.232;3.764;2022-10-15T08:27:47;15.30;99.90
13446;DHT22;6795;51.232;3.764;2022-10-15T08:30:45;15.30;99.90
13446;DHT22;6795;51.232;3.764;2022-10-15T08:34:02;15.30;99.90
13446;DHT22;6795;51.232;3.764;2022-10-15T08:37:12;15.30;99.90
13446;DHT22;6795;51.232;3.764;2022-10-15T08:41:00;15.40;99.90
13446;DHT22;6795;51.232;3.764;2022-10-15T08:45:03;15.40;99.90
13446;DHT22;6795;51.232;3.764;2022-10-15T08:48:22;15.60;99.90
13446;DHT22;6795;51.232;3.764;2022-10-15T08:51:54;15.70;99.90
13446;DHT22;6795;51.232;3.764;2022-10-15T08:55:28;15.70;99.90
13446;DHT22;6795;51.232;3.764;2022-10-15T09:03:23;15.80;99.90
13446;DHT22;6795;51.232;3.764;2022-10-15T09:06:50;16.00;99.90
13446;DHT22;6795;51.232;3.764;2022-10-15T09:10:21;16.10;99.90
13446;DHT22;6795;51.232;3.764;2022-10-15T09:13:32;16.10;99.90
13446;DHT22;6795;51.232;3.764;2022-10-15T09:16:48;16.10;99.90
13446;DHT22;6795;51.232;3.764;2022-10-15T09:28:27;16.30;99.90
13446;DHT22;6795;51.232;3.764;2022-10-15T09:31:59;16.50;99.90
13446;DHT22;6795;51.232;3.764;2022-10-15T09:35:21;16.60;99.90
13446;DHT22;6795;51.232;3.764;2022-10-15T09:38:38;16.70;99.90
13446;DHT22;6795;51.232;3.764;2022-10-15T09:42:06;16.70;99.90
13446;DHT22;6795;51.232;3.764;2022-10-15T09:45:38;16.80;99.90
13446;DHT22;6795;51.232;3.764;2022-10-15T09:49:33;17.00;99.90
13446;DHT22;6795;51.232;3.764;2022-10-15T09:56:54;17.30;99.90
13446;DHT22;6795;51.232;3.764;2022-10-15T10:00:44;17.30;99.90
13446;DHT22;6795;51.232;3.764;2022-10-15T10:04:19;17.30;99.90
13446;DHT22;6795;51.232;3.764;2022-10-15T10:07:52;17.40;99.90
13446;DHT22;6795;51.232;3.764;2022-10-15T10:12:25;17.40;99.90
13446;DHT22;6795;51.232;3.764;2022-10-15T10:15:33;17.40;99.90
13446;DHT22;6795;51.232;3.764;2022-10-15T10:19:13;17.40;99.90
13446;DHT22;6795;51.232;3.764;2022-10-15T10:22:32;17.30;99.90
13446;DHT22;6795;51.232;3.764;2022-10-15T10:25:36;17.30;99.90
13446;DHT22;6795;51.232;3.764;2022-10-15T10:32:19;17.30;99.90
13446;DHT22;6795;51.232;3.764;2022-10-15T10:34:48;17.40;99.90
13446;DHT22;6795;51.232;3.764;2022-10-15T10:37:19;17.40;99.90
13446;DHT22;6795;51.232;3.764;2022-10-15T10:39:52;17.40;99.90
13446;DHT22;6795;51.232;3.764;2022-10-15T10:42:29;17.50;99.90
13446;DHT22;6795;51.232;3.764;2022-10-15T10:45:17;17.60;99.90
13446;DHT22;6795;51.232;3.764;2022-10-15T10:47:47;17.60;99.90
13446;DHT22;6795;51.232;3.764;2022-10-15T10:50:28;17.80;99.90
13446;DHT22;6795;51.232;3.764;2022-10-15T10:52:57;18.00;99.90
13446;DHT22;6795;51.232;3.764;2022-10-15T10:55:32;18.10;99.90
13446;DHT22;6795;51.232;3.764;2022-10-15T10:58:04;18.10;99.90
13446;DHT22;6795;51.232;3.764;2022-10-15T11:00:37;18.20;99.90
13446;DHT22;6795;51.232;3.764;2022-10-15T11:07:24;18.20;99.90
13446;DHT22;6795;51.232;3.764;2022-10-15T11:10:46;18.10;99.90
13446;DHT22;6795;51.232;3.764;2022-10-15T11:13:31;18.00;99.90
13446;DHT22;6795;51.232;3.764;2022-10-15T11:16:06;17.80;99.90
13446;DHT22;6795;51.232;3.764;2022-10-15T11:18:52;17.60;99.90
13446;DHT22;6795;51.232;3.764;2022-10-15T11:21:26;17.50;99.90
13446;DHT22;6795;51.232;3.764;2022-10-15T11:24:11;17.50;99.90
13446;DHT22;6795;51.232;3.764;2022-10-15T11:26:51;17.60;99.90
13446;DHT22;6795;51.232;3.764;2022-10-15T11:29:41;17.60;99.90
13446;DHT22;6795;51.232;3.764;2022-10-15T11:32:20;17.70;99.90
13446;DHT22;6795;51.232;3.764;2022-10-15T11:38:16;17.70;99.90
13446;DHT22;6795;51.232;3.764;2022-10-15T11:40:59;17.60;99.90
13446;DHT22;6795;51.232;3.764;2022-10-15T11:43:41;17.60;99.90
13446;DHT22;6795;51.232;3.764;2022-10-15T11:46:16;17.80;99.90
13446;DHT22;6795;51.232;3.764;2022-10-15T11:48:59;18.00;99.90
13446;DHT22;6795;51.232;3.764;2022-10-15T11:51:40;18.30;99.90
13446;DHT22;6795;51.232;3.764;2022-10-15T11:54:22;18.60;99.90
13446;DHT22;6795;51.232;3.764;2022-10-15T11:56:56;18.60;99.90
13446;DHT22;6795;51.232;3.764;2022-10-15T11:59:32;18.50;99.90
13446;DHT22;6795;51.232;3.764;2022-10-15T12:02:11;18.60;99.90
13446;DHT22;6795;51.232;3.764;2022-10-15T12:04:43;18.80;99.90
13446;DHT22;6795;51.232;3.764;2022-10-15T12:07:20;19.10;99.90
13446;DHT22;6795;51.232;3.764;2022-10-15T12:09:53;18.80;99.90
13446;DHT22;6795;51.232;3.764;2022-10-15T12:12:34;18.50;99.90
13446;DHT22;6795;51.232;3.764;2022-10-15T12:15:15;18.10;99.90
13446;DHT22;6795;51.232;3.764;2022-10-15T12:17:50;18.10;99.90
13446;DHT22;6795;51.232;3.764;2022-10-15T12:20:22;18.10;99.90
13446;DHT22;6795;51.232;3.764;2022-10-15T12:22:56;18.10;99.90
13446;DHT22;6795;51.232;3.764;2022-10-15T12:25:43;18.30;99.90
13446;DHT22;6795;51.232;3.764;2022-10-15T12:28:17;18.30;99.90
13446;DHT22;6795;51.232;3.764;2022-10-15T12:30:59;18.40;99.90
13446;DHT22;6795;51.232;3.764;2022-10-15T12:33:34;18.50;99.90
13446;DHT22;6795;51.232;3.764;2022-10-15T12:36:06;18.40;99.90
13446;DHT22;6795;51.232;3.764;2022-10-15T12:38:38;18.60;99.90
13446;DHT22;6795;51.232;3.764;2022-10-15T12:41:08;19.00;99.90
13446;DHT22;6795;51.232;3.764;2022-10-15T12:43:41;18.90;99.90
13446;DHT22;6795;51.232;3.764;2022-10-15T12:46:10;19.10;99.90
13446;DHT22;6795;51.232;3.764;2022-10-15T12:48:41;18.90;99.90
13446;DHT22;6795;51.232;3.764;2022-10-15T12:51:37;18.80;99.90
13446;DHT22;6795;51.232;3.764;2022-10-15T12:54:32;18.50;99.90
13446;DHT22;6795;51.232;3.764;2022-10-15T12:57:01;18.50;99.90
13446;DHT22;6795;51.232;3.764;2022-10-15T12:59:56;18.80;99.90
13446;DHT22;6795;51.232;3.764;2022-10-15T13:02:35;19.20;99.90
13446;DHT22;6795;51.232;3.764;2022-10-15T13:05:06;19.40;99.90
13446;DHT22;6795;51.232;3.764;2022-10-15T13:07:38;19.10;99.90
13446;DHT22;6795;51.232;3.764;2022-10-15T13:10:18;19.30;99.90
13446;DHT22;6795;51.232;3.764;2022-10-15T13:12:51;19.50;99.90
13446;DHT22;6795;51.232;3.764;2022-10-15T13:15:24;19.80;99.90
13446;DHT22;6795;51.232;3.764;2022-10-15T13:17:53;20.20;99.90
13446;DHT22;6795;51.232;3.764;2022-10-15T13:20:32;20.30;99.90
13446;DHT22;6795;51.232;3.764;2022-10-15T13:23:20;20.90;99.90
13446;DHT22;6795;51.232;3.764;2022-10-15T13:26:31;20.80;99.90
13446;DHT22;6795;51.232;3.764;2022-10-15T13:29:52;20.20;99.90
13446;DHT22;6795;51.232;3.764;2022-10-15T13:32:24;19.80;99.90
13446;DHT22;6795;51.232;3.764;2022-10-15T13:34:54;19.50;99.90
13446;DHT22;6795;51.232;3.764;2022-10-15T13:37:28;19.10;99.90
13446;DHT22;6795;51.232;3.764;2022-10-15T13:39:58;19.10;99.90
13446;DHT22;6795;51.232;3.764;2022-10-15T13:42:34;19.20;99.90
13446;DHT22;6795;51.232;3.764;2022-10-15T13:45:15;19.30;99.90
13446;DHT22;6795;51.232;3.764;2022-10-15T13:47:49;19.60;99.90
13446;DHT22;6795;51.232;3.764;2022-10-15T13:50:21;20.20;99.90
13446;DHT22;6795;51.232;3.764;2022-10-15T13:52:54;20.40;99.90
13446;DHT22;6795;51.232;3.764;2022-10-15T13:55:36;20.50;99.90
13446;DHT22;6795;51.232;3.764;2022-10-15T13:58:17;20.70;99.90
13446;DHT22;6795;51.232;3.764;2022-10-15T14:00:54;20.70;99.90
13446;DHT22;6795;51.232;3.764;2022-10-15T14:03:25;20.80;99.90
13446;DHT22;6795;51.232;3.764;2022-10-15T14:05:55;20.70;99.90
13446;DHT22;6795;51.232;3.764;2022-10-15T14:08:27;20.70;99.90
13446;DHT22;6795;51.232;3.764;2022-10-15T14:10:57;21.00;99.90
13446;DHT22;6795;51.232;3.764;2022-10-15T14:13:26;21.20;99.90
13446;DHT22;6795;51.232;3.764;2022-10-15T14:16:13;21.20;99.90
13446;DHT22;6795;51.232;3.764;2022-10-15T14:18:45;21.00;99.90
13446;DHT22;6795;51.232;3.764;2022-10-15T14:21:18;20.70;99.90
13446;DHT22;6795;51.232;3.764;2022-10-15T14:23:47;20.60;99.90
13446;DHT22;6795;51.232;3.764;2022-10-15T14:26:26;20.50;99.90
13446;DHT22;6795;51.232;3.764;2022-10-15T14:28:54;20.50;99.90
13446;DHT22;6795;51.232;3.764;2022-10-15T14:31:35;20.50;99.90
13446;DHT22;6795;51.232;3.764;2022-10-15T14:34:29;20.40;99.90
13446;DHT22;6795;51.232;3.764;2022-10-15T14:36:58;20.00;99.90
13446;DHT22;6795;51.232;3.764;2022-10-15T14:39:30;19.80;99.90
13446;DHT22;6795;51.232;3.764;2022-10-15T14:42:00;19.90;99.90
13446;DHT22;6795;51.232;3.764;2022-10-15T14:44:43;19.80;99.90
13446;DHT22;6795;51.232;3.764;2022-10-15T14:47:18;20.00;99.90
13446;DHT22;6795;51.232;3.764;2022-10-15T14:49:54;19.80;99.90
13446;DHT22;6795;51.232;3.764;2022-10-15T14:52:24;19.70;99.90
13446;DHT22;6795;51.232;3.764;2022-10-15T14:55:00;19.70;99.90
13446;DHT22;6795;51.232;3.764;2022-10-15T14:57:30;19.50;99.90
13446;DHT22;6795;51.232;3.764;2022-10-15T15:00:03;19.30;99.90
13446;DHT22;6795;51.232;3.764;2022-10-15T15:02:32;18.90;99.90
13446;DHT22;6795;51.232;3.764;2022-10-15T15:05:15;18.70;99.90
13446;DHT22;6795;51.232;3.764;2022-10-15T15:07:44;18.40;99.90
13446;DHT22;6795;51.232;3.764;2022-10-15T15:10:14;18.20;99.90
13446;DHT22;6795;51.232;3.764;2022-10-15T15:12:45;18.00;99.90
13446;DHT22;6795;51.232;3.764;2022-10-15T15:15:15;17.90;99.90
13446;DHT22;6795;51.232;3.764;2022-10-15T15:17:44;18.00;99.90
13446;DHT22;6795;51.232;3.764;2022-10-15T15:20:14;17.80;99.90
13446;DHT22;6795;51.232;3.764;2022-10-15T15:22:47;17.80;99.90
13446;DHT22;6795;51.232;3.764;2022-10-15T15:25:18;17.70;99.90
13446;DHT22;6795;51.232;3.764;2022-10-15T15:27:47;17.60;99.90
13446;DHT22;6795;51.232;3.764;2022-10-15T15:30:18;17.60;99.90
13446;DHT22;6795;51.232;3.764;2022-10-15T15:32:47;17.60;99.90
13446;DHT22;6795;51.232;3.764;2022-10-15T15:35:22;17.40;99.90
13446;DHT22;6795;51.232;3.764;2022-10-15T15:37:51;17.30;99.90
13446;DHT22;6795;51.232;3.764;2022-10-15T15:40:20;17.20;99.90
13446;DHT22;6795;51.232;3.764;2022-10-15T15:42:49;17.10;99.90
13446;DHT22;6795;51.232;3.764;2022-10-15T15:45:20;17.00;99.90
13446;DHT22;6795;51.232;3.764;2022-10-15T15:47:49;17.00;99.90
13446;DHT22;6795;51.232;3.764;2022-10-15T15:50:20;17.00;99.90
13446;DHT22;6795;51.232;3.764;2022-10-15T15:52:48;16.90;99.90
13446;DHT22;6795;51.232;3.764;2022-10-15T15:55:17;16.90;99.90
13446;DHT22;6795;51.232;3.764;2022-10-15T15:57:46;16.80;99.90
13446;DHT22;6795;51.232;3.764;2022-10-15T16:00:14;16.80;99.90
13446;DHT22;6795;51.232;3.764;2022-10-15T16:02:43;16.80;99.90
13446;DHT22;6795;51.232;3.764;2022-10-15T16:05:13;16.70;99.90
13446;DHT22;6795;51.232;3.764;2022-10-15T16:07:43;16.70;99.90
13446;DHT22;6795;51.232;3.764;2022-10-15T16:10:12;16.60;99.90
13446;DHT22;6795;51.232;3.764;2022-10-15T16:12:40;16.50;99.90
13446;DHT22;6795;51.232;3.764;2022-10-15T16:15:10;16.40;99.90
13446;DHT22;6795;51.232;3.764;2022-10-15T16:17:41;16.40;99.90
13446;DHT22;6795;51.232;3.764;2022-10-15T16:20:10;16.30;99.90
13446;DHT22;6795;51.232;3.764;2022-10-15T16:23:15;16.30;99.90
13446;DHT22;6795;51.232;3.764;2022-10-15T16:30:01;16.00;99.90
13446;DHT22;6795;51.232;3.764;2022-10-15T16:33:13;15.80;99.90
13446;DHT22;6795;51.232;3.764;2022-10-15T16:36:25;15.80;99.90
13446;DHT22;6795;51.232;3.764;2022-10-15T16:39:40;15.70;99.90
13446;DHT22;6795;51.232;3.764;2022-10-15T16:43:29;15.60;99.90
13446;DHT22;6795;51.232;3.764;2022-10-15T16:46:42;15.40;99.90
13446;DHT22;6795;51.232;3.764;2022-10-15T16:50:18;15.30;99.90
13446;DHT22;6795;51.232;3.764;2022-10-15T16:53:38;15.30;99.90
13446;DHT22;6795;51.232;3.764;2022-10-15T16:57:14;15.30;99.90
13446;DHT22;6795;51.232;3.764;2022-10-15T17:00:20;15.20;99.90
13446;DHT22;6795;51.232;3.764;2022-10-15T17:03:32;15.20;99.90
13446;DHT22;6795;51.232;3.764;2022-10-15T17:06:02;15.20;99.90
13446;DHT22;6795;51.232;3.764;2022-10-15T17:08:36;15.20;99.90
13446;DHT22;6795;51.232;3.764;2022-10-15T17:11:08;15.20;99.90
13446;DHT22;6795;51.232;3.764;2022-10-15T17:13:38;15.20;99.90
13446;DHT22;6795;51.232;3.764;2022-10-15T17:16:08;15.20;99.90
13446;DHT22;6795;51.232;3.764;2022-10-15T17:18:37;15.10;99.90
13446;DHT22;6795;51.232;3.764;2022-10-15T17:21:11;15.10;99.90
13446;DHT22;6795;51.232;3.764;2022-10-15T17:23:39;15.00;99.90
13446;DHT22;6795;51.232;3.764;2022-10-15T17:26:10;15.00;99.90
13446;DHT22;6795;51.232;3.764;2022-10-15T17:28:40;15.00;99.90
13446;DHT22;6795;51.232;3.764;2022-10-15T17:31:11;15.00;99.90
13446;DHT22;6795;51.232;3.764;2022-10-15T17:33:41;15.00;99.90
13446;DHT22;6795;51.232;3.764;2022-10-15T17:36:14;15.00;99.90
13446;DHT22;6795;51.232;3.764;2022-10-15T17:38:43;15.00;99.90
13446;DHT22;6795;51.232;3.764;2022-10-15T17:41:15;15.00;99.90
13446;DHT22;6795;51.232;3.764;2022-10-15T17:44:06;15.00;99.90
13446;DHT22;6795;51.232;3.764;2022-10-15T17:47:11;15.00;99.90
13446;DHT22;6795;51.232;3.764;2022-10-15T17:49:50;15.10;99.90
13446;DHT22;6795;51.232;3.764;2022-10-15T17:52:19;15.30;99.90
13446;DHT22;6795;51.232;3.764;2022-10-15T17:54:47;15.30;99.90
13446;DHT22;6795;51.232;3.764;2022-10-15T17:57:16;15.50;99.90
13446;DHT22;6795;51.232;3.764;2022-10-15T17:59:48;15.50;99.90
13446;DHT22;6795;51.232;3.764;2022-10-15T18:02:17;15.60;99.90
13446;DHT22;6795;51.232;3.764;2022-10-15T18:04:45;15.60;99.90
13446;DHT22;6795;51.232;3.764;2022-10-15T18:07:14;15.60;99.90
13446;DHT22;6795;51.232;3.764;2022-10-15T18:09:45;15.60;99.90
13446;DHT22;6795;51.232;3.764;2022-10-15T18:12:14;15.70;99.90
13446;DHT22;6795;51.232;3.764;2022-10-15T18:14:42;15.60;99.90
13446;DHT22;6795;51.232;3.764;2022-10-15T18:17:12;15.60;99.90
13446;DHT22;6795;51.232;3.764;2022-10-15T18:19:41;15.60;99.90
13446;DHT22;6795;51.232;3.764;2022-10-15T18:22:23;15.70;99.90
13446;DHT22;6795;51.232;3.764;2022-10-15T18:24:51;15.70;99.90
13446;DHT22;6795;51.232;3.764;2022-10-15T18:27:33;15.70;99.90
13446;DHT22;6795;51.232;3.764;2022-10-15T18:30:09;15.70;99.90
13446;DHT22;6795;51.232;3.764;2022-10-15T18:32:39;15.70;99.90
13446;DHT22;6795;51.232;3.764;2022-10-15T18:35:07;15.60;99.90
13446;DHT22;6795;51.232;3.764;2022-10-15T18:37:35;15.50;99.90
13446;DHT22;6795;51.232;3.764;2022-10-15T18:40:05;15.40;99.90
13446;DHT22;6795;51.232;3.764;2022-10-15T18:42:33;15.40;99.90
13446;DHT22;6795;51.232;3.764;2022-10-15T18:45:02;15.30;99.90
13446;DHT22;6795;51.232;3.764;2022-10-15T18:47:31;15.20;99.90
13446;DHT22;6795;51.232;3.764;2022-10-15T18:50:00;15.10;99.90
13446;DHT22;6795;51.232;3.764;2022-10-15T18:52:28;15.10;99.90
13446;DHT22;6795;51.232;3.764;2022-10-15T18:55:07;15.00;99.90
13446;DHT22;6795;51.232;3.764;2022-10-15T18:57:35;15.00;99.90
13446;DHT22;6795;51.232;3.764;2022-10-15T19:00:05;14.90;99.90
13446;DHT22;6795;51.232;3.764;2022-10-15T19:02:33;14.90;99.90
13446;DHT22;6795;51.232;3.764;2022-10-15T19:05:04;14.90;99.90
13446;DHT22;6795;51.232;3.764;2022-10-15T19:07:32;14.90;99.90
13446;DHT22;6795;51.232;3.764;2022-10-15T19:10:00;14.90;99.90
13446;DHT22;6795;51.232;3.764;2022-10-15T19:12:29;14.90;99.90
13446;DHT22;6795;51.232;3.764;2022-10-15T19:14:57;14.80;99.90
13446;DHT22;6795;51.232;3.764;2022-10-15T19:17:26;14.80;99.90
13446;DHT22;6795;51.232;3.764;2022-10-15T19:19:55;14.80;99.90
13446;DHT22;6795;51.232;3.764;2022-10-15T19:22:25;14.70;99.90
13446;DHT22;6795;51.232;3.764;2022-10-15T19:24:54;14.70;99.90
13446;DHT22;6795;51.232;3.764;2022-10-15T19:27:23;14.70;99.90
13446;DHT22;6795;51.232;3.764;2022-10-15T19:29:51;14.70;99.90
13446;DHT22;6795;51.232;3.764;2022-10-15T19:32:20;14.60;99.90
13446;DHT22;6795;51.232;3.764;2022-10-15T19:34:48;14.50;99.90
13446;DHT22;6795;51.232;3.764;2022-10-15T19:37:17;14.50;99.90
13446;DHT22;6795;51.232;3.764;2022-10-15T19:39:47;14.40;99.90
13446;DHT22;6795;51.232;3.764;2022-10-15T19:42:15;14.40;99.90
13446;DHT22;6795;51.232;3.764;2022-10-15T19:44:43;14.40;99.90
13446;DHT22;6795;51.232;3.764;2022-10-15T19:47:12;14.30;99.90
13446;DHT22;6795;51.232;3.764;2022-10-15T19:49:45;14.30;99.90
13446;DHT22;6795;51.232;3.764;2022-10-15T19:52:13;14.30;99.90
13446;DHT22;6795;51.232;3.764;2022-10-15T19:54:42;14.20;99.90
13446;DHT22;6795;51.232;3.764;2022-10-15T19:57:12;14.20;99.90
13446;DHT22;6795;51.232;3.764;2022-10-15T19:59:41;14.10;99.90
13446;DHT22;6795;51.232;3.764;2022-10-15T20:02:10;14.10;99.90
13446;DHT22;6795;51.232;3.764;2022-10-15T20:04:57;14.20;99.90
13446;DHT22;6795;51.232;3.764;2022-10-15T20:07:25;14.20;99.90
13446;DHT22;6795;51.232;3.764;2022-10-15T20:09:54;14.30;99.90
13446;DHT22;6795;51.232;3.764;2022-10-15T20:12:23;14.30;99.90
13446;DHT22;6795;51.232;3.764;2022-10-15T20:14:52;14.30;99.90
13446;DHT22;6795;51.232;3.764;2022-10-15T20:17:20;14.30;99.90
13446;DHT22;6795;51.232;3.764;2022-10-15T20:19:49;14.40;99.90